Time;durP1;ratioP1;P1;durP2;ratioP2;P2;SDS_P1;SDS_P2;PMS_P1;PMS_P2;Temp;Humidity;BMP_temperature;BMP_pressure;BME280_temperature;BME280_humidity;BME280_pressure;Samples;Min_cycle;Max_cycle;Signal;HPM_P1;HPM_P2
2022/11/01 00:01:19;;;;;;;17.98;12.60;;;;;;;;;;5098750;28;20230;-71
2022/11/01 00:03:45;;;;;;;22.17;12.15;;;;;;;;;;5097610;28;20325;-71
2022/11/01 00:06:12;;;;;;;23.20;11.75;;;;;;;;;;5098241;28;20208;-71
2022/11/01 00:08:38;;;;;;;16.33;11.77;;;;;;;;;;5097642;28;20519;-71
2022/11/01 00:11:05;;;;;;;16.25;11.20;;;;;;;;;;5097534;28;20372;-71
2022/11/01 00:13:31;;;;;;;17.88;12.23;;;;;;;;;;5097299;28;20211;-72
2022/11/01 00:15:59;;;;;;;16.27;11.20;;;;;;;;;;5097610;28;20472;-71
2022/11/01 00:18:26;;;;;;;16.40;11.88;;;;;;;;;;5097118;28;20227;-71
2022/11/01 00:20:52;;;;;;;18.77;11.55;;;;;;;;;;5097602;28;20211;-71
2022/11/01 00:23:18;;;;;;;15.35;10.80;;;;;;;;;;5097208;28;20405;-71
2022/11/01 00:25:45;;;;;;;16.73;11.93;;;;;;;;;;5097756;28;20361;-71
2022/11/01 00:28:11;;;;;;;18.70;12.18;;;;;;;;;;5097225;28;20261;-71
2022/11/01 00:30:38;;;;;;;17.13;11.43;;;;;;;;;;5095408;28;20222;-71
2022/11/01 00:33:05;;;;;;;18.77;11.80;;;;;;;;;;5097984;28;20210;-71
2022/11/01 00:35:32;;;;;;;22.55;12.20;;;;;;;;;;5097566;28;20268;-71
2022/11/01 00:37:59;;;;;;;24.83;12.93;;;;;;;;;;5096826;28;20244;-71
2022/11/01 00:40:25;;;;;;;23.35;12.50;;;;;;;;;;5097025;28;20214;-71
2022/11/01 00:42:52;;;;;;;18.60;11.82;;;;;;;;;;5096627;28;20207;-71
2022/11/01 00:45:18;;;;;;;20.65;11.40;;;;;;;;;;5097529;28;20215;-71
2022/11/01 00:47:46;;;;;;;19.15;11.63;;;;;;;;;;5096180;28;20204;-71
2022/11/01 00:50:13;;;;;;;22.67;11.88;;;;;;;;;;5098173;28;20207;-71
2022/11/01 00:52:40;;;;;;;20.30;11.45;;;;;;;;;;5096498;28;20230;-71
2022/11/01 00:55:06;;;;;;;25.40;11.40;;;;;;;;;;5097209;28;20215;-71
2022/11/01 00:57:33;;;;;;;21.80;11.63;;;;;;;;;;5096882;28;20539;-71
2022/11/01 00:59:59;;;;;;;14.80;10.88;;;;;;;;;;5096711;28;20216;-71
2022/11/01 01:02:25;;;;;;;18.25;11.75;;;;;;;;;;5096525;28;20207;-71
2022/11/01 01:04:51;;;;;;;19.73;11.52;;;;;;;;;;5096513;28;20215;-71
2022/11/01 01:07:19;;;;;;;18.85;11.57;;;;;;;;;;5097306;28;20226;-71
2022/11/01 01:09:45;;;;;;;23.08;13.30;;;;;;;;;;5096965;28;20207;-71
2022/11/01 01:12:12;;;;;;;20.10;12.32;;;;;;;;;;5096617;28;20207;-71
2022/11/01 01:14:38;;;;;;;19.70;11.73;;;;;;;;;;5096495;28;20244;-71
2022/11/01 01:17:04;;;;;;;23.45;11.88;;;;;;;;;;5102053;28;20487;-71
2022/11/01 01:19:31;;;;;;;16.13;11.02;;;;;;;;;;5102006;28;20379;-71
2022/11/01 01:21:57;;;;;;;19.98;12.10;;;;;;;;;;5102169;28;20200;-71
2022/11/01 01:24:24;;;;;;;16.30;11.20;;;;;;;;;;5102190;28;20195;-71
2022/11/01 01:26:51;;;;;;;16.88;11.23;;;;;;;;;;5102274;28;20499;-71
2022/11/01 01:29:17;;;;;;;22.85;10.88;;;;;;;;;;5101946;28;20580;-71
2022/11/01 01:31:43;;;;;;;20.20;12.07;;;;;;;;;;5102165;28;20200;-71
2022/11/01 01:34:10;;;;;;;19.08;11.05;;;;;;;;;;5101936;28;20200;-71
2022/11/01 01:36:36;;;;;;;19.58;12.20;;;;;;;;;;5102254;28;20195;-71
2022/11/01 01:39:02;;;;;;;18.08;10.98;;;;;;;;;;5101664;28;20223;-71
2022/11/01 01:44:32;;;;;;;20.92;10.48;;;;;;;;;;5102186;28;20258;-71
2022/11/01 01:46:58;;;;;;;14.23;9.65;;;;;;;;;;5102020;28;20502;-71
2022/11/01 01:49:25;;;;;;;13.70;10.30;;;;;;;;;;5101783;28;20192;-71
2022/11/01 01:51:51;;;;;;;12.90;9.30;;;;;;;;;;5101919;28;20203;-71
2022/11/01 01:54:17;;;;;;;15.52;10.25;;;;;;;;;;5102002;28;20196;-71
2022/11/01 01:56:45;;;;;;;17.15;9.80;;;;;;;;;;5102082;28;20510;-71
2022/11/01 01:59:12;;;;;;;14.90;9.35;;;;;;;;;;5102561;28;20220;-71
2022/11/01 02:01:40;;;;;;;18.98;10.15;;;;;;;;;;5106035;28;20510;-71
2022/11/01 02:04:09;;;;;;;19.35;10.98;;;;;;;;;;5106110;28;20191;-71
2022/11/01 02:06:35;;;;;;;16.73;10.57;;;;;;;;;;5106471;28;20214;-71
2022/11/01 02:09:03;;;;;;;17.90;10.73;;;;;;;;;;5105524;28;20503;-71
2022/11/01 02:11:29;;;;;;;15.65;10.02;;;;;;;;;;5105928;28;20398;-71
2022/11/01 02:13:57;;;;;;;16.27;10.18;;;;;;;;;;5105930;28;20222;-71
2022/11/01 02:16:32;;;;;;;15.85;9.80;;;;;;;;;;5105775;28;20510;-71
2022/11/01 02:19:03;;;;;;;15.75;10.80;;;;;;;;;;5105345;28;20240;-71
2022/11/01 02:21:43;;;;;;;16.92;10.45;;;;;;;;;;5105554;28;20507;-71
2022/11/01 02:24:24;;;;;;;20.80;10.65;;;;;;;;;;5105720;28;20208;-71
2022/11/01 02:26:57;;;;;;;17.08;10.63;;;;;;;;;;5104863;28;20204;-71
2022/11/01 02:29:36;;;;;;;14.73;10.02;;;;;;;;;;5105069;28;20423;-71
2022/11/01 02:32:10;;;;;;;18.38;9.73;;;;;;;;;;5105453;28;20214;-71
2022/11/01 02:34:40;;;;;;;17.00;11.18;;;;;;;;;;5105931;28;20202;-71
2022/11/01 02:37:10;;;;;;;14.15;10.30;;;;;;;;;;5105441;28;20196;-71
2022/11/01 02:39:39;;;;;;;16.05;11.45;;;;;;;;;;5104835;28;20412;-71
2022/11/01 02:42:09;;;;;;;13.85;10.45;;;;;;;;;;5105460;28;20199;-71
2022/11/01 02:44:37;;;;;;;13.77;10.25;;;;;;;;;;5105318;28;20218;-71
2022/11/01 02:47:03;;;;;;;20.10;10.52;;;;;;;;;;5105101;28;20195;-71
2022/11/01 02:49:33;;;;;;;15.27;10.63;;;;;;;;;;5104778;28;20454;-71
2022/11/01 02:52:01;;;;;;;20.85;11.32;;;;;;;;;;5105211;28;20199;-71
2022/11/01 02:54:30;;;;;;;14.00;10.25;;;;;;;;;;5105220;28;20387;-71
2022/11/01 02:56:58;;;;;;;15.68;10.32;;;;;;;;;;5104918;28;20241;-71
2022/11/01 02:59:27;;;;;;;21.55;11.00;;;;;;;;;;5104584;28;20349;-71
2022/11/01 03:01:57;;;;;;;15.40;10.93;;;;;;;;;;5104789;28;20241;-71
2022/11/01 03:04:23;;;;;;;17.13;11.15;;;;;;;;;;5104670;28;20196;-71
2022/11/01 03:06:54;;;;;;;13.63;10.70;;;;;;;;;;5104636;28;20207;-71
2022/11/01 03:09:21;;;;;;;12.38;10.68;;;;;;;;;;5104933;28;20192;-71
2022/11/01 03:11:52;;;;;;;16.20;10.45;;;;;;;;;;5104140;28;20257;-71
2022/11/01 03:14:23;;;;;;;26.15;11.93;;;;;;;;;;5104727;28;20196;-71
2022/11/01 03:16:52;;;;;;;17.40;10.45;;;;;;;;;;5104642;28;20203;-71
2022/11/01 03:19:27;;;;;;;14.98;11.00;;;;;;;;;;5104063;28;20223;-71
2022/11/01 03:21:58;;;;;;;17.15;11.65;;;;;;;;;;5104586;28;20198;-71
2022/11/01 03:24:27;;;;;;;19.13;11.25;;;;;;;;;;5104725;28;20199;-71
2022/11/01 03:26:55;;;;;;;15.38;10.88;;;;;;;;;;5104404;28;20525;-71
2022/11/01 03:29:23;;;;;;;18.60;10.77;;;;;;;;;;5104126;28;20212;-71
2022/11/01 03:31:50;;;;;;;22.35;11.20;;;;;;;;;;5104481;28;20211;-71
2022/11/01 03:34:18;;;;;;;18.33;11.50;;;;;;;;;;5104336;28;20196;-71
2022/11/01 03:36:47;;;;;;;17.20;11.93;;;;;;;;;;5104329;28;20202;-71
2022/11/01 03:39:15;;;;;;;17.55;10.95;;;;;;;;;;5103761;28;20446;-71
2022/11/01 03:41:43;;;;;;;20.55;12.00;;;;;;;;;;5104040;28;20196;-71
2022/11/01 03:44:11;;;;;;;17.73;12.30;;;;;;;;;;5103963;28;20498;-71
2022/11/01 03:46:37;;;;;;;21.60;11.52;;;;;;;;;;5104162;28;20218;-71
2022/11/01 03:49:03;;;;;;;17.85;11.90;;;;;;;;;;5103722;28;20219;-71
2022/11/01 03:51:30;;;;;;;20.48;12.15;;;;;;;;;;5103863;28;20196;-71
2022/11/01 03:53:56;;;;;;;20.33;12.45;;;;;;;;;;5103908;28;20241;-71
2022/11/01 03:56:24;;;;;;;22.35;12.38;;;;;;;;;;5103810;28;20256;-71
2022/11/01 03:58:50;;;;;;;24.58;13.23;;;;;;;;;;5103273;28;20528;-71
2022/11/01 04:01:17;;;;;;;19.30;11.95;;;;;;;;;;5103837;28;20203;-71
2022/11/01 04:03:43;;;;;;;19.05;11.82;;;;;;;;;;5103491;28;20195;-71
2022/11/01 04:06:10;;;;;;;20.27;11.43;;;;;;;;;;5103619;28;20195;-71
2022/11/01 04:08:36;;;;;;;17.80;11.77;;;;;;;;;;5103059;28;20192;-71
2022/11/01 04:11:03;;;;;;;17.60;11.75;;;;;;;;;;5103520;28;20241;-71
2022/11/01 04:13:31;;;;;;;22.73;11.32;;;;;;;;;;5103339;28;20203;-71
2022/11/01 04:21:26;;;;;;;14.00;10.27;;;;;;;;;;5103386;28;20199;-71
2022/11/01 04:23:52;;;;;;;14.15;11.15;;;;;;;;;;5102391;28;20406;-71
2022/11/01 04:26:19;;;;;;;16.20;12.98;;;;;;;;;;5103141;28;20413;-71
2022/11/01 04:28:55;;;;;;;17.80;11.95;;;;;;;;;;5103192;28;20226;-71
2022/11/01 04:31:22;;;;;;;16.13;11.93;;;;;;;;;;5103609;28;20505;-71
2022/11/01 04:33:48;;;;;;;16.65;12.00;;;;;;;;;;5102957;28;20196;-71
2022/11/01 04:36:14;;;;;;;16.80;11.27;;;;;;;;;;5102820;28;20233;-71
2022/11/01 04:38:40;;;;;;;21.33;12.27;;;;;;;;;;5102542;28;20227;-71
2022/11/01 04:41:07;;;;;;;18.05;11.80;;;;;;;;;;5102942;28;20397;-71
2022/11/01 04:43:33;;;;;;;18.67;11.85;;;;;;;;;;5102907;28;20203;-71
2022/11/01 04:46:01;;;;;;;22.08;11.05;;;;;;;;;;5102669;28;20202;-71
2022/11/01 04:48:27;;;;;;;19.48;11.18;;;;;;;;;;5102752;28;20364;-71
2022/11/01 04:50:53;;;;;;;17.55;10.95;;;;;;;;;;5102792;28;20195;-71
2022/11/01 04:53:20;;;;;;;21.05;11.73;;;;;;;;;;5102878;28;20203;-71
2022/11/01 04:55:46;;;;;;;19.35;11.45;;;;;;;;;;5102765;28;20200;-71
2022/11/01 04:58:13;;;;;;;14.55;11.05;;;;;;;;;;5102489;28;20271;-71
2022/11/01 05:00:42;;;;;;;16.45;10.57;;;;;;;;;;5102578;28;20286;-71
2022/11/01 05:03:11;;;;;;;15.05;10.82;;;;;;;;;;5102370;28;20267;-71
2022/11/01 05:05:38;;;;;;;18.13;10.45;;;;;;;;;;5102362;28;20203;-71
2022/11/01 05:08:05;;;;;;;14.38;10.52;;;;;;;;;;5102369;28;20233;-71
2022/11/01 05:10:31;;;;;;;15.55;10.52;;;;;;;;;;5102528;28;20191;-71
2022/11/01 05:12:58;;;;;;;12.05;9.93;;;;;;;;;;5102318;28;20210;-71
2022/11/01 05:15:24;;;;;;;19.30;10.88;;;;;;;;;;5102253;28;20199;-71
2022/11/01 05:17:50;;;;;;;15.40;9.98;;;;;;;;;;5101885;28;20233;-71
2022/11/01 05:20:18;;;;;;;18.05;11.00;;;;;;;;;;5102080;28;20246;-71
2022/11/01 05:22:44;;;;;;;15.88;11.15;;;;;;;;;;5102434;28;20338;-71
2022/11/01 05:25:10;;;;;;;21.65;10.80;;;;;;;;;;5102257;28;20195;-71
2022/11/01 05:27:37;;;;;;;16.35;10.65;;;;;;;;;;5102011;28;20444;-71
2022/11/01 05:30:03;;;;;;;15.38;10.30;;;;;;;;;;5102182;28;20198;-71
2022/11/01 05:32:29;;;;;;;23.20;10.85;;;;;;;;;;5101930;28;20196;-71
2022/11/01 05:34:56;;;;;;;18.48;11.32;;;;;;;;;;5101670;28;20195;-71
2022/11/01 05:37:23;;;;;;;21.38;11.25;;;;;;;;;;5102183;28;20195;-71
2022/11/01 05:39:50;;;;;;;30.30;16.13;;;;;;;;;;5101980;28;20224;-71
2022/11/01 05:42:16;;;;;;;30.55;13.40;;;;;;;;;;5102291;28;20200;-70
2022/11/01 05:44:42;;;;;;;21.67;11.38;;;;;;;;;;5101965;28;20201;-70
2022/11/01 05:47:08;;;;;;;16.90;10.55;;;;;;;;;;5101728;28;20191;-71
2022/11/01 05:49:35;;;;;;;22.95;11.07;;;;;;;;;;5101338;28;20210;-71
2022/11/01 05:52:01;;;;;;;21.40;11.60;;;;;;;;;;5101607;28;20412;-71
2022/11/01 05:54:28;;;;;;;14.25;10.18;;;;;;;;;;5101760;28;20203;-71
2022/11/01 05:56:55;;;;;;;17.83;10.48;;;;;;;;;;5101658;28;20518;-71
2022/11/01 05:59:21;;;;;;;19.45;11.15;;;;;;;;;;5101687;28;20421;-71
2022/11/01 06:01:47;;;;;;;17.98;9.57;;;;;;;;;;5101394;28;20199;-71
2022/11/01 06:04:13;;;;;;;18.10;10.25;;;;;;;;;;5101332;28;20196;-71
2022/11/01 06:06:40;;;;;;;17.88;9.65;;;;;;;;;;5101616;28;20383;-71
2022/11/01 06:09:06;;;;;;;19.38;9.52;;;;;;;;;;5101296;28;20376;-71
2022/11/01 06:11:34;;;;;;;13.43;9.05;;;;;;;;;;5101641;28;20202;-71
2022/11/01 06:14:00;;;;;;;17.58;9.25;;;;;;;;;;5101654;28;20203;-71
2022/11/01 06:16:27;;;;;;;15.45;8.77;;;;;;;;;;5101416;28;20415;-71
2022/11/01 06:18:53;;;;;;;15.48;10.05;;;;;;;;;;5101121;28;20195;-71
2022/11/01 06:21:21;;;;;;;17.58;11.18;;;;;;;;;;5101477;28;20287;-71
2022/11/01 06:23:49;;;;;;;19.60;12.30;;;;;;;;;;5101456;28;20203;-71
2022/11/01 06:26:15;;;;;;;15.85;11.68;;;;;;;;;;5101329;28;20202;-71
2022/11/01 06:28:43;;;;;;;18.52;11.05;;;;;;;;;;5100718;28;20222;-71
2022/11/01 06:31:09;;;;;;;18.15;10.68;;;;;;;;;;5101475;28;20199;-71
2022/11/01 06:33:35;;;;;;;15.63;10.80;;;;;;;;;;5101397;28;20552;-71
2022/11/01 06:36:02;;;;;;;16.55;10.35;;;;;;;;;;5101327;28;20442;-71
2022/11/01 06:38:28;;;;;;;16.40;11.25;;;;;;;;;;5101113;28;20226;-71
2022/11/01 06:40:54;;;;;;;14.63;9.68;;;;;;;;;;5101132;28;20265;-71
2022/11/01 06:43:21;;;;;;;17.02;10.55;;;;;;;;;;5101236;28;20525;-72
2022/11/01 06:45:48;;;;;;;12.32;9.52;;;;;;;;;;5101511;28;20203;-71
2022/11/01 06:48:15;;;;;;;14.75;9.93;;;;;;;;;;5104593;28;20207;-71
2022/11/01 06:50:41;;;;;;;10.02;8.70;;;;;;;;;;5104815;28;20507;-71
2022/11/01 06:53:09;;;;;;;18.55;8.75;;;;;;;;;;5104672;28;20217;-71
2022/11/01 06:55:36;;;;;;;9.48;7.50;;;;;;;;;;5104536;28;20200;-71
2022/11/01 06:58:02;;;;;;;10.00;7.10;;;;;;;;;;5104105;28;20207;-71
2022/11/01 07:00:30;;;;;;;9.57;7.47;;;;;;;;;;5104645;28;20542;-71
2022/11/01 07:03:01;;;;;;;11.27;7.63;;;;;;;;;;5104530;28;20202;-71
2022/11/01 07:05:27;;;;;;;12.98;7.38;;;;;;;;;;5104526;28;20249;-71
2022/11/01 07:07:54;;;;;;;11.40;7.03;;;;;;;;;;5103991;28;20204;-71
2022/11/01 07:10:20;;;;;;;14.30;9.13;;;;;;;;;;5104207;28;20207;-71
2022/11/01 07:12:46;;;;;;;17.88;9.02;;;;;;;;;;5104564;28;20195;-71
2022/11/01 07:15:13;;;;;;;14.60;9.55;;;;;;;;;;5104387;28;20196;-71
2022/11/01 07:17:39;;;;;;;18.85;10.40;;;;;;;;;;5104140;28;20196;-71
2022/11/01 07:20:08;;;;;;;18.83;9.75;;;;;;;;;;5104402;28;20704;-71
2022/11/01 07:22:34;;;;;;;17.05;9.45;;;;;;;;;;5104144;28;20529;-71
2022/11/01 07:25:00;;;;;;;14.98;7.97;;;;;;;;;;5104016;28;20206;-71
2022/11/01 07:27:26;;;;;;;14.45;8.15;;;;;;;;;;5104109;28;20234;-71
2022/11/01 07:29:53;;;;;;;15.63;9.23;;;;;;;;;;5103846;28;20200;-71
2022/11/01 07:32:19;;;;;;;16.13;10.00;;;;;;;;;;5104177;28;20394;-71
2022/11/01 07:34:45;;;;;;;15.00;9.88;;;;;;;;;;5103943;28;20195;-71
2022/11/01 07:37:13;;;;;;;14.13;9.13;;;;;;;;;;5103882;28;20196;-71
2022/11/01 07:39:39;;;;;;;17.48;10.10;;;;;;;;;;5103412;28;20572;-71
2022/11/01 07:42:05;;;;;;;16.65;9.73;;;;;;;;;;5103998;28;20480;-71
2022/11/01 07:44:32;;;;;;;15.52;8.98;;;;;;;;;;5103865;28;20219;-71
2022/11/01 07:46:58;;;;;;;15.07;8.52;;;;;;;;;;5103846;28;20268;-71
2022/11/01 07:49:24;;;;;;;12.65;9.10;;;;;;;;;;5103465;28;20502;-71
2022/11/01 07:51:50;;;;;;;12.60;7.72;;;;;;;;;;5103669;28;20370;-71
2022/11/01 07:54:18;;;;;;;9.40;8.20;;;;;;;;;;5092449;28;20207;-72
2022/11/01 07:56:44;;;;;;;11.20;7.53;;;;;;;;;;5100579;28;20204;-72
2022/11/01 07:59:10;;;;;;;10.77;7.50;;;;;;;;;;5100634;28;20218;-73
2022/11/01 08:01:37;;;;;;;9.43;7.45;;;;;;;;;;5101009;28;20522;-72
2022/11/01 08:04:03;;;;;;;12.75;7.70;;;;;;;;;;5100954;28;20414;-72
2022/11/01 08:06:29;;;;;;;12.00;7.63;;;;;;;;;;5101082;28;20210;-73
2022/11/01 08:08:56;;;;;;;10.18;7.28;;;;;;;;;;5101227;28;20204;-73
2022/11/01 08:11:23;;;;;;;12.93;7.93;;;;;;;;;;5101156;28;20207;-73
2022/11/01 08:13:50;;;;;;;11.13;7.10;;;;;;;;;;5100693;28;20203;-72
2022/11/01 08:16:17;;;;;;;14.10;7.45;;;;;;;;;;5100675;28;20498;-72
2022/11/01 08:18:43;;;;;;;13.35;7.45;;;;;;;;;;5100789;28;20203;-72
2022/11/01 08:21:10;;;;;;;13.27;7.25;;;;;;;;;;5100976;28;20223;-72
2022/11/01 08:23:36;;;;;;;10.38;7.97;;;;;;;;;;5100700;28;20210;-72
2022/11/01 08:26:05;;;;;;;11.32;8.02;;;;;;;;;;5100792;28;20204;-72
2022/11/01 08:28:32;;;;;;;11.88;7.63;;;;;;;;;;5098084;28;20244;-72
2022/11/01 08:30:58;;;;;;;16.77;8.25;;;;;;;;;;5097685;28;20204;-72
2022/11/01 08:33:25;;;;;;;16.33;9.20;;;;;;;;;;5097852;28;20207;-72
2022/11/01 08:35:51;;;;;;;18.15;9.60;;;;;;;;;;5100015;28;20200;-72
2022/11/01 08:38:17;;;;;;;12.40;8.48;;;;;;;;;;5102842;28;20211;-72
2022/11/01 08:40:44;;;;;;;14.00;9.10;;;;;;;;;;5102969;28;20391;-73
2022/11/01 08:43:10;;;;;;;14.40;9.02;;;;;;;;;;5102898;28;20196;-72
2022/11/01 08:45:38;;;;;;;12.85;8.73;;;;;;;;;;5102878;28;20210;-72
2022/11/01 08:48:04;;;;;;;13.15;8.75;;;;;;;;;;5102666;28;20390;-71
2022/11/01 08:50:32;;;;;;;12.63;7.28;;;;;;;;;;5102675;28;20392;-71
2022/11/01 08:52:58;;;;;;;9.90;7.32;;;;;;;;;;5102703;28;20195;-71
2022/11/01 08:55:25;;;;;;;16.02;7.70;;;;;;;;;;5102766;28;20394;-72
2022/11/01 08:57:51;;;;;;;13.90;9.27;;;;;;;;;;5102473;28;20267;-72
2022/11/01 09:00:17;;;;;;;13.20;9.30;;;;;;;;;;5102764;28;20212;-71
2022/11/01 09:02:45;;;;;;;14.27;9.02;;;;;;;;;;5102548;28;20195;-71
2022/11/01 09:05:11;;;;;;;13.95;8.82;;;;;;;;;;5102451;28;20202;-71
2022/11/01 09:07:38;;;;;;;16.13;9.93;;;;;;;;;;5102402;28;20207;-71
2022/11/01 09:10:05;;;;;;;14.05;9.13;;;;;;;;;;5102067;28;20192;-71
2022/11/01 09:12:31;;;;;;;13.88;8.35;;;;;;;;;;5102470;28;20239;-71
2022/11/01 09:14:58;;;;;;;12.75;9.10;;;;;;;;;;5102458;28;20200;-71
2022/11/01 09:17:24;;;;;;;15.98;8.07;;;;;;;;;;5102355;28;20364;-72
2022/11/01 09:19:51;;;;;;;14.88;8.15;;;;;;;;;;5102429;28;20195;-72
2022/11/01 09:22:18;;;;;;;12.55;8.00;;;;;;;;;;5102465;28;20223;-72
2022/11/01 09:24:44;;;;;;;11.48;7.57;;;;;;;;;;5102236;28;20200;-72
2022/11/01 09:27:10;;;;;;;16.10;7.82;;;;;;;;;;5102127;28;20230;-72
2022/11/01 09:29:37;;;;;;;14.43;8.43;;;;;;;;;;5102056;28;20196;-72
2022/11/01 09:32:03;;;;;;;17.38;10.57;;;;;;;;;;5102126;28;20195;-72
2022/11/01 09:34:29;;;;;;;13.73;9.30;;;;;;;;;;5102471;28;20490;-72
2022/11/01 09:36:57;;;;;;;13.80;9.70;;;;;;;;;;5102254;28;20196;-72
2022/11/01 09:39:23;;;;;;;11.57;9.95;;;;;;;;;;5101784;28;20211;-72
2022/11/01 09:41:51;;;;;;;13.88;9.80;;;;;;;;;;5101943;28;20414;-72
2022/11/01 09:44:19;;;;;;;15.77;9.48;;;;;;;;;;5102064;28;20196;-72
2022/11/01 09:46:47;;;;;;;14.48;8.02;;;;;;;;;;5102025;28;20203;-72
2022/11/01 09:49:18;;;;;;;11.27;8.65;;;;;;;;;;5102082;28;20195;-72
2022/11/01 09:51:44;;;;;;;15.68;8.65;;;;;;;;;;5102276;28;20203;-72
2022/11/01 09:54:12;;;;;;;12.27;8.43;;;;;;;;;;5102000;28;20200;-72
2022/11/01 09:56:41;;;;;;;14.50;9.10;;;;;;;;;;5102292;28;20410;-72
2022/11/01 09:59:13;;;;;;;10.13;6.72;;;;;;;;;;5101672;28;20199;-72
2022/11/01 10:01:41;;;;;;;7.13;4.95;;;;;;;;;;5101934;28;20224;-72
2022/11/01 10:04:15;;;;;;;6.03;3.72;;;;;;;;;;5102417;28;20188;-72
2022/11/01 10:06:43;;;;;;;19.40;12.43;;;;;;;;;;5102039;28;20195;-72
2022/11/01 10:09:17;;;;;;;6.25;4.40;;;;;;;;;;5101994;28;20204;-72
2022/11/01 10:11:53;;;;;;;5.20;2.95;;;;;;;;;;5101760;28;20192;-72
2022/11/01 10:14:26;;;;;;;2.50;2.30;;;;;;;;;;5102057;28;20494;-72
2022/11/01 10:16:57;;;;;;;4.63;3.10;;;;;;;;;;5101772;28;20223;-71
2022/11/01 10:19:25;;;;;;;2.83;2.63;;;;;;;;;;5101525;28;20202;-72
2022/11/01 10:21:53;;;;;;;1.50;1.50;;;;;;;;;;5105363;28;20226;-72
2022/11/01 10:24:24;;;;;;;3.00;2.80;;;;;;;;;;5106273;28;20204;-72
2022/11/01 10:26:53;;;;;;;1.50;1.50;;;;;;;;;;5105815;28;20204;-72
2022/11/01 10:29:22;;;;;;;2.78;1.80;;;;;;;;;;5105236;28;20224;-72
2022/11/01 10:31:50;;;;;;;1.95;1.30;;;;;;;;;;5105598;28;20192;-72
2022/11/01 10:34:20;;;;;;;1.50;0.82;;;;;;;;;;5105514;28;20206;-72
2022/11/01 10:36:47;;;;;;;1.80;1.70;;;;;;;;;;5105799;28;20199;-72
2022/11/01 10:39:17;;;;;;;1.02;0.50;;;;;;;;;;5105057;28;20211;-72
2022/11/01 10:41:47;;;;;;;0.50;0.50;;;;;;;;;;5105254;28;20216;-72
2022/11/01 10:44:16;;;;;;;1.02;1.00;;;;;;;;;;5105445;28;20199;-72
2022/11/01 10:46:45;;;;;;;1.25;1.15;;;;;;;;;;5105040;28;20192;-72
2022/11/01 10:49:16;;;;;;;1.60;1.50;;;;;;;;;;5104819;28;20398;-72
2022/11/01 10:51:44;;;;;;;2.15;0.80;;;;;;;;;;5105413;28;20198;-72
2022/11/01 10:54:15;;;;;;;0.82;0.70;;;;;;;;;;5104978;28;20195;-72
2022/11/01 10:56:44;;;;;;;0.90;0.90;;;;;;;;;;5105291;28;20199;-72
2022/11/01 10:59:15;;;;;;;0.68;0.68;;;;;;;;;;5104759;28;20195;-72
2022/11/01 11:01:43;;;;;;;0.50;0.50;;;;;;;;;;5104770;28;20226;-72
2022/11/01 11:04:12;;;;;;;0.77;0.77;;;;;;;;;;5105088;28;20425;-72
2022/11/01 11:06:39;;;;;;;0.60;0.60;;;;;;;;;;5105050;28;20202;-72
2022/11/01 11:09:05;;;;;;;0.60;0.60;;;;;;;;;;5104703;28;20507;-72
2022/11/01 11:11:34;;;;;;;0.65;0.60;;;;;;;;;;5104776;28;20192;-72
2022/11/01 11:14:01;;;;;;;1.95;0.70;;;;;;;;;;5104661;28;20514;-72
2022/11/01 11:16:31;;;;;;;1.20;0.70;;;;;;;;;;5104782;28;20195;-72
2022/11/01 11:19:01;;;;;;;0.88;0.80;;;;;;;;;;5104635;28;20321;-72
2022/11/01 11:21:32;;;;;;;2.75;0.60;;;;;;;;;;5104624;28;20340;-72
2022/11/01 11:23:59;;;;;;;0.95;0.60;;;;;;;;;;5104653;28;20195;-72
2022/11/01 11:26:25;;;;;;;1.48;0.70;;;;;;;;;;5104436;28;20219;-72
2022/11/01 11:28:53;;;;;;;1.58;1.02;;;;;;;;;;5104041;28;20219;-72
2022/11/01 11:31:21;;;;;;;3.40;0.93;;;;;;;;;;5104318;28;20495;-72
2022/11/01 11:33:50;;;;;;;0.85;0.65;;;;;;;;;;5104094;28;20226;-72
2022/11/01 11:36:17;;;;;;;0.80;0.70;;;;;;;;;;5104389;28;20203;-72
2022/11/01 11:38:44;;;;;;;2.72;0.73;;;;;;;;;;5103944;28;20203;-72
2022/11/01 11:41:11;;;;;;;0.68;0.55;;;;;;;;;;5104120;28;20309;-72
2022/11/01 11:43:40;;;;;;;2.05;0.75;;;;;;;;;;5104102;28;20364;-72
2022/11/01 11:46:12;;;;;;;2.35;1.00;;;;;;;;;;5104117;28;20199;-72
2022/11/01 11:48:45;;;;;;;1.48;0.75;;;;;;;;;;5103752;28;20505;-72
2022/11/01 11:51:13;;;;;;;0.80;0.80;;;;;;;;;;5104101;28;20215;-72
2022/11/01 11:53:40;;;;;;;2.20;1.20;;;;;;;;;;5103770;28;20211;-72
2022/11/01 11:56:07;;;;;;;1.80;0.80;;;;;;;;;;5103834;28;20196;-72
2022/11/01 11:58:35;;;;;;;2.38;0.85;;;;;;;;;;5103770;28;20196;-72
2022/11/01 12:01:03;;;;;;;1.80;1.00;;;;;;;;;;5103784;28;20235;-72
2022/11/01 12:03:29;;;;;;;1.02;0.90;;;;;;;;;;5103772;28;20210;-72
2022/11/01 12:05:58;;;;;;;0.73;0.73;;;;;;;;;;5103731;28;20233;-72
2022/11/01 12:08:30;;;;;;;3.35;0.65;;;;;;;;;;5103314;28;20202;-72
2022/11/01 12:10:57;;;;;;;1.23;0.82;;;;;;;;;;5103766;28;20204;-72
2022/11/01 12:13:25;;;;;;;0.70;0.70;;;;;;;;;;5103559;28;20196;-72
2022/11/01 12:16:05;;;;;;;0.70;0.65;;;;;;;;;;5103448;28;20200;-72
2022/11/01 12:18:31;;;;;;;1.92;0.90;;;;;;;;;;5103243;28;20518;-72
2022/11/01 12:20:58;;;;;;;1.27;1.20;;;;;;;;;;5103175;28;20422;-72
2022/11/01 12:23:26;;;;;;;2.35;0.95;;;;;;;;;;5103564;28;20355;-72
2022/11/01 12:25:54;;;;;;;0.77;0.77;;;;;;;;;;5103383;28;20425;-72
2022/11/01 12:28:24;;;;;;;2.50;0.75;;;;;;;;;;5103078;28;20414;-72
2022/11/01 12:30:52;;;;;;;1.00;0.60;;;;;;;;;;5103186;28;20454;-71
2022/11/01 12:33:23;;;;;;;1.08;0.95;;;;;;;;;;5103277;28;20196;-71
2022/11/01 12:35:53;;;;;;;1.77;0.70;;;;;;;;;;5103276;28;20221;-72
2022/11/01 12:38:33;;;;;;;1.50;1.00;;;;;;;;;;5102831;28;20204;-72
2022/11/01 12:41:04;;;;;;;2.85;0.80;;;;;;;;;;5103212;28;20554;-72
2022/11/01 12:43:32;;;;;;;2.05;0.80;;;;;;;;;;5102409;28;20420;-72
2022/11/01 12:46:01;;;;;;;0.70;0.70;;;;;;;;;;5102948;28;20202;-72
2022/11/01 12:48:29;;;;;;;1.52;0.57;;;;;;;;;;5102696;28;20199;-72
2022/11/01 12:50:58;;;;;;;3.40;0.90;;;;;;;;;;5102976;28;20191;-72
2022/11/01 12:53:27;;;;;;;2.08;0.82;;;;;;;;;;5102815;28;20203;-72
2022/11/01 12:55:53;;;;;;;0.65;0.65;;;;;;;;;;5102769;28;20200;-72
2022/11/01 12:58:22;;;;;;;1.75;0.82;;;;;;;;;;5102325;28;20202;-72
2022/11/01 13:00:55;;;;;;;2.00;0.90;;;;;;;;;;5102693;28;20198;-72
2022/11/01 13:03:28;;;;;;;1.38;0.90;;;;;;;;;;5102711;28;20202;-72
2022/11/01 13:05:57;;;;;;;1.00;0.82;;;;;;;;;;5102734;28;20263;-72
2022/11/01 13:08:26;;;;;;;1.38;1.05;;;;;;;;;;5102501;28;20195;-72
2022/11/01 13:10:54;;;;;;;3.33;1.50;;;;;;;;;;5102427;28;20208;-72
2022/11/01 13:13:27;;;;;;;2.88;1.00;;;;;;;;;;5102632;28;20200;-72
2022/11/01 13:16:01;;;;;;;5.47;1.60;;;;;;;;;;5102576;28;20196;-72
2022/11/01 13:18:33;;;;;;;4.03;1.80;;;;;;;;;;5102343;28;20219;-72
2022/11/01 13:21:06;;;;;;;3.22;1.15;;;;;;;;;;5102422;28;20195;-72
2022/11/01 13:23:35;;;;;;;5.13;1.40;;;;;;;;;;5102237;28;20387;-72
2022/11/01 13:26:04;;;;;;;1.42;1.20;;;;;;;;;;5102596;28;20401;-72
2022/11/01 13:28:41;;;;;;;7.40;1.60;;;;;;;;;;5102170;28;20565;-72
2022/11/01 13:31:12;;;;;;;6.03;1.35;;;;;;;;;;5102509;28;20381;-72
2022/11/01 13:33:41;;;;;;;3.95;1.40;;;;;;;;;;5102174;28;20204;-72
2022/11/01 13:36:13;;;;;;;2.70;1.30;;;;;;;;;;5102287;28;20192;-72
2022/11/01 13:38:43;;;;;;;2.58;1.10;;;;;;;;;;5102127;28;20210;-72
2022/11/01 13:41:18;;;;;;;4.78;1.40;;;;;;;;;;5102332;28;20297;-72
2022/11/01 13:43:48;;;;;;;5.43;1.50;;;;;;;;;;5102236;28;20603;-72
2022/11/01 13:46:42;;;;;;;3.40;1.45;;;;;;;;;;5102060;28;20195;-72
2022/11/01 13:49:23;;;;;;;4.75;1.80;;;;;;;;;;5101987;28;20414;-72
2022/11/01 13:51:55;;;;;;;3.13;1.40;;;;;;;;;;5102283;28;20222;-72
2022/11/01 13:54:24;;;;;;;2.75;1.58;;;;;;;;;;5102268;28;20250;-72
2022/11/01 13:56:54;;;;;;;1.70;1.60;;;;;;;;;;5106070;28;20203;-72
2022/11/01 13:59:30;;;;;;;3.40;1.15;;;;;;;;;;5106203;28;20204;-72
2022/11/01 14:02:19;;;;;;;4.97;1.70;;;;;;;;;;5106292;28;20217;-72
2022/11/01 14:04:54;;;;;;;3.63;1.08;;;;;;;;;;5106237;28;20196;-72
2022/11/01 14:07:22;;;;;;;3.15;1.20;;;;;;;;;;5106527;28;20203;-72
2022/11/01 14:09:49;;;;;;;5.57;1.40;;;;;;;;;;5106266;28;20199;-72
2022/11/01 14:12:36;;;;;;;2.97;1.48;;;;;;;;;;5106435;28;20263;-72
2022/11/01 14:15:18;;;;;;;4.82;1.60;;;;;;;;;;5106180;28;20562;-72
2022/11/01 14:17:59;;;;;;;4.28;1.63;;;;;;;;;;5105706;28;20191;-72
2022/11/01 14:20:35;;;;;;;3.15;1.20;;;;;;;;;;5105775;28;20195;-72
2022/11/01 14:23:30;;;;;;;6.00;1.40;;;;;;;;;;5105625;28;20282;-72
2022/11/01 14:26:11;;;;;;;2.15;1.33;;;;;;;;;;5105419;28;20200;-72
2022/11/01 14:28:42;;;;;;;2.60;1.40;;;;;;;;;;5105138;28;20274;-72
2022/11/01 14:31:10;;;;;;;4.30;1.40;;;;;;;;;;5105746;28;20199;-73
2022/11/01 14:33:36;;;;;;;4.30;1.65;;;;;;;;;;5105363;28;20202;-72
2022/11/01 14:36:04;;;;;;;7.75;1.88;;;;;;;;;;5105423;28;20196;-73
2022/11/01 14:38:33;;;;;;;2.88;1.20;;;;;;;;;;5105101;28;20217;-72
2022/11/01 14:41:00;;;;;;;7.88;2.65;;;;;;;;;;5105488;28;20525;-73
2022/11/01 14:43:31;;;;;;;5.45;1.50;;;;;;;;;;5105125;28;20216;-72